sensor_id;sensor_type;location;lat;lon;timestamp;pressure;altitude;pressure_sealevel;temperature;humidity
42621;BME280;28252;53.336;-6.298;2023-03-16T00:00:15;99329.41;;;20.39;100.00
42621;BME280;28252;53.336;-6.298;2023-03-16T00:00:46;99332.13;;;20.39;100.00
42621;BME280;28252;53.336;-6.298;2023-03-16T00:01:17;99330.22;;;20.40;100.00
42621;BME280;28252;53.336;-6.298;2023-03-16T00:01:50;99328.59;;;20.39;100.00
42621;BME280;28252;53.336;-6.298;2023-03-16T00:02:28;99336.69;;;20.39;100.00
42621;BME280;28252;53.336;-6.298;2023-03-16T00:03:02;99330.47;;;20.38;100.00
42621;BME280;28252;53.336;-6.298;2023-03-16T00:03:33;99326.91;;;20.38;100.00
42621;BME280;28252;53.336;-6.298;2023-03-16T00:04:04;99325.88;;;20.39;100.00
42621;BME280;28252;53.336;-6.298;2023-03-16T00:04:35;99326.91;;;20.38;100.00
42621;BME280;28252;53.336;-6.298;2023-03-16T00:05:09;99330.47;;;20.38;100.00
42621;BME280;28252;53.336;-6.298;2023-03-16T00:05:41;99330.47;;;20.38;100.00
42621;BME280;28252;53.336;-6.298;2023-03-16T00:06:12;99324.22;;;20.38;100.00
42621;BME280;28252;53.336;-6.298;2023-03-16T00:06:43;99331.50;;;20.37;100.00
42621;BME280;28252;53.336;-6.298;2023-03-16T00:07:16;99325.25;;;20.37;100.00
42621;BME280;28252;53.336;-6.298;2023-03-16T00:07:49;99325.25;;;20.37;100.00
42621;BME280;28252;53.336;-6.298;2023-03-16T00:08:24;99321.50;;;20.38;100.00
42621;BME280;28252;53.336;-6.298;2023-03-16T00:08:59;99318.19;;;20.36;100.00
42621;BME280;28252;53.336;-6.298;2023-03-16T00:09:30;99324.41;;;20.36;100.00
42621;BME280;28252;53.336;-6.298;2023-03-16T00:10:07;99316.28;;;20.36;100.00
42621;BME280;28252;53.336;-6.298;2023-03-16T00:10:38;99319.84;;;20.37;100.00
42621;BME280;28252;53.336;-6.298;2023-03-16T00:11:11;99321.69;;;20.36;100.00
42621;BME280;28252;53.336;-6.298;2023-03-16T00:11:42;99328.16;;;20.35;100.00
42621;BME280;28252;53.336;-6.298;2023-03-16T00:12:20;99323.59;;;20.36;100.00
42621;BME280;28252;53.336;-6.298;2023-03-16T00:12:56;99318.19;;;20.36;100.00
42621;BME280;28252;53.336;-6.298;2023-03-16T00:13:31;99311.09;;;20.34;100.00
42621;BME280;28252;53.336;-6.298;2023-03-16T00:14:04;99316.50;;;20.34;100.00
42621;BME280;28252;53.336;-6.298;2023-03-16T00:14:46;99314.84;;;20.33;100.00
42621;BME280;28252;53.336;-6.298;2023-03-16T00:15:19;99313.78;;;20.34;100.00
42621;BME280;28252;53.336;-6.298;2023-03-16T00:15:55;99317.56;;;20.33;100.00
42621;BME280;28252;53.336;-6.298;2023-03-16T00:16:27;99317.75;;;20.32;100.00
42621;BME280;28252;53.336;-6.298;2023-03-16T00:17:02;99312.34;;;20.32;100.00
42621;BME280;28252;53.336;-6.298;2023-03-16T00:17:36;99310.66;;;20.31;100.00
42621;BME280;28252;53.336;-6.298;2023-03-16T00:18:11;99311.31;;;20.33;100.00
42621;BME280;28252;53.336;-6.298;2023-03-16T00:18:49;99321.28;;;20.32;100.00
42621;BME280;28252;53.336;-6.298;2023-03-16T00:19:22;99318.78;;;20.31;100.00
42621;BME280;28252;53.336;-6.298;2023-03-16T00:20:17;99321.28;;;20.32;100.00
42621;BME280;28252;53.336;-6.298;2023-03-16T00:20:53;99316.94;;;20.31;100.00
42621;BME280;28252;53.336;-6.298;2023-03-16T00:21:27;99321.50;;;20.31;100.00
42621;BME280;28252;53.336;-6.298;2023-03-16T00:22:08;99321.50;;;20.31;100.00
42621;BME280;28252;53.336;-6.298;2023-03-16T00:22:41;99317.97;;;20.30;100.00
42621;BME280;28252;53.336;-6.298;2023-03-16T00:23:17;99317.13;;;20.30;100.00
42621;BME280;28252;53.336;-6.298;2023-03-16T00:23:49;99322.75;;;20.28;100.00
42621;BME280;28252;53.336;-6.298;2023-03-16T00:24:25;99322.75;;;20.28;100.00
42621;BME280;28252;53.336;-6.298;2023-03-16T00:25:00;99315.66;;;20.27;100.00
42621;BME280;28252;53.336;-6.298;2023-03-16T00:25:31;99317.53;;;20.27;100.00
42621;BME280;28252;53.336;-6.298;2023-03-16T00:26:07;99314.84;;;20.27;100.00
42621;BME280;28252;53.336;-6.298;2023-03-16T00:26:38;99314.84;;;20.27;100.00
42621;BME280;28252;53.336;-6.298;2023-03-16T00:27:10;99317.53;;;20.27;100.00
42621;BME280;28252;53.336;-6.298;2023-03-16T00:27:44;99307.75;;;20.26;100.00
42621;BME280;28252;53.336;-6.298;2023-03-16T00:28:15;99312.34;;;20.25;100.00
42621;BME280;28252;53.336;-6.298;2023-03-16T00:28:50;99309.63;;;20.25;100.00
42621;BME280;28252;53.336;-6.298;2023-03-16T00:29:26;99312.34;;;20.25;100.00
42621;BME280;28252;53.336;-6.298;2023-03-16T00:29:57;99316.91;;;20.25;100.00
42621;BME280;28252;53.336;-6.298;2023-03-16T00:30:34;99308.81;;;20.25;100.00
42621;BME280;28252;53.336;-6.298;2023-03-16T00:31:08;99309.81;;;20.24;100.00
42621;BME280;28252;53.336;-6.298;2023-03-16T00:31:49;99310.66;;;20.24;100.00
42621;BME280;28252;53.336;-6.298;2023-03-16T00:33:21;99308.19;;;20.23;100.00
42621;BME280;28252;53.336;-6.298;2023-03-16T00:33:58;99313.59;;;20.23;100.00
42621;BME280;28252;53.336;-6.298;2023-03-16T00:34:38;99307.31;;;20.22;100.00
42621;BME280;28252;53.336;-6.298;2023-03-16T00:35:10;99315.44;;;20.22;100.00
42621;BME280;28252;53.336;-6.298;2023-03-16T00:35:44;99311.09;;;20.21;100.00
42621;BME280;28252;53.336;-6.298;2023-03-16T00:36:23;99306.50;;;20.22;100.00
42621;BME280;28252;53.336;-6.298;2023-03-16T00:36:56;99311.09;;;20.21;100.00
42621;BME280;28252;53.336;-6.298;2023-03-16T00:37:30;99299.41;;;20.21;100.00
42621;BME280;28252;53.336;-6.298;2023-03-16T00:38:07;99299.41;;;20.21;100.00
42621;BME280;28252;53.336;-6.298;2023-03-16T00:38:40;99304.00;;;20.20;100.00
42621;BME280;28252;53.336;-6.298;2023-03-16T00:39:18;99302.13;;;20.21;100.00
42621;BME280;28252;53.336;-6.298;2023-03-16T00:39:52;99303.19;;;20.20;100.00
42621;BME280;28252;53.336;-6.298;2023-03-16T00:40:28;99301.28;;;20.20;100.00
42621;BME280;28252;53.336;-6.298;2023-03-16T00:41:02;99295.06;;;20.20;100.00
42621;BME280;28252;53.336;-6.298;2023-03-16T00:41:34;99293.19;;;20.20;100.00
42621;BME280;28252;53.336;-6.298;2023-03-16T00:42:10;99304.81;;;20.21;100.00
42621;BME280;28252;53.336;-6.298;2023-03-16T00:42:46;99287.78;;;20.20;100.00
42621;BME280;28252;53.336;-6.298;2023-03-16T00:43:19;99284.47;;;20.18;100.00
42621;BME280;28252;53.336;-6.298;2023-03-16T00:43:50;99289.88;;;20.18;100.00
42621;BME280;28252;53.336;-6.298;2023-03-16T00:44:26;99287.34;;;20.17;100.00
42621;BME280;28252;53.336;-6.298;2023-03-16T00:45:03;99284.66;;;20.17;100.00
42621;BME280;28252;53.336;-6.298;2023-03-16T00:45:38;99290.88;;;20.17;100.00
42621;BME280;28252;53.336;-6.298;2023-03-16T00:46:13;99291.94;;;20.16;100.00
42621;BME280;28252;53.336;-6.298;2023-03-16T00:46:49;99286.53;;;20.16;100.00
42621;BME280;28252;53.336;-6.298;2023-03-16T00:47:24;99291.94;;;20.16;100.00
42621;BME280;28252;53.336;-6.298;2023-03-16T00:47:55;99285.69;;;20.15;100.00
42621;BME280;28252;53.336;-6.298;2023-03-16T00:48:34;99285.47;;;20.17;100.00
42621;BME280;28252;53.336;-6.298;2023-03-16T00:49:08;99291.94;;;20.16;100.00
42621;BME280;28252;53.336;-6.298;2023-03-16T00:49:42;99286.53;;;20.16;100.00
42621;BME280;28252;53.336;-6.298;2023-03-16T00:50:23;99287.56;;;20.15;100.00
42621;BME280;28252;53.336;-6.298;2023-03-16T00:51:02;99284.03;;;20.14;100.00
42621;BME280;28252;53.336;-6.298;2023-03-16T00:51:38;99278.63;;;20.14;100.00
42621;BME280;28252;53.336;-6.298;2023-03-16T00:52:12;99277.78;;;20.14;100.00
42621;BME280;28252;53.336;-6.298;2023-03-16T00:52:48;99282.34;;;20.13;100.00
42621;BME280;28252;53.336;-6.298;2023-03-16T00:53:22;99282.34;;;20.13;100.00
42621;BME280;28252;53.336;-6.298;2023-03-16T00:53:55;99281.34;;;20.14;100.00
42621;BME280;28252;53.336;-6.298;2023-03-16T00:54:28;99277.97;;;20.12;100.00
42621;BME280;28252;53.336;-6.298;2023-03-16T00:55:05;99291.50;;;20.12;100.00
42621;BME280;28252;53.336;-6.298;2023-03-16T00:55:40;99283.19;;;20.14;100.00
42621;BME280;28252;53.336;-6.298;2023-03-16T00:56:15;99291.50;;;20.12;100.00
42621;BME280;28252;53.336;-6.298;2023-03-16T00:56:52;99276.13;;;20.13;100.00
42621;BME280;28252;53.336;-6.298;2023-03-16T00:57:28;99281.53;;;20.13;100.00
42621;BME280;28252;53.336;-6.298;2023-03-16T00:58:05;99279.84;;;20.12;100.00
42621;BME280;28252;53.336;-6.298;2023-03-16T00:58:38;99273.63;;;20.11;100.00
42621;BME280;28252;53.336;-6.298;2023-03-16T00:59:16;99272.81;;;20.11;100.00
42621;BME280;28252;53.336;-6.298;2023-03-16T00:59:51;99279.03;;;20.11;100.00
42621;BME280;28252;53.336;-6.298;2023-03-16T01:00:27;99260.31;;;20.10;100.00
42621;BME280;28252;53.336;-6.298;2023-03-16T01:01:01;99279.22;;;20.10;100.00
42621;BME280;28252;53.336;-6.298;2023-03-16T01:01:34;99275.69;;;20.09;100.00
42621;BME280;28252;53.336;-6.298;2023-03-16T01:02:07;99273.81;;;20.10;100.00
42621;BME280;28252;53.336;-6.298;2023-03-16T01:02:41;99272.16;;;20.09;100.00
42621;BME280;28252;53.336;-6.298;2023-03-16T01:03:19;99264.03;;;20.09;100.00
42621;BME280;28252;53.336;-6.298;2023-03-16T01:03:50;99273.81;;;20.10;100.00
42621;BME280;28252;53.336;-6.298;2023-03-16T01:04:23;99270.31;;;20.09;100.00
42621;BME280;28252;53.336;-6.298;2023-03-16T01:04:54;99269.44;;;20.09;100.00
42621;BME280;28252;53.336;-6.298;2023-03-16T01:05:25;99269.44;;;20.09;100.00
42621;BME280;28252;53.336;-6.298;2023-03-16T01:06:12;99268.63;;;20.08;100.00
42621;BME280;28252;53.336;-6.298;2023-03-16T01:06:46;99263.22;;;20.08;100.00
42621;BME280;28252;53.336;-6.298;2023-03-16T01:07:45;99260.72;;;20.07;100.00
42621;BME280;28252;53.336;-6.298;2023-03-16T01:08:20;99261.53;;;20.07;100.00
42621;BME280;28252;53.336;-6.298;2023-03-16T01:08:52;99256.97;;;20.08;100.00
42621;BME280;28252;53.336;-6.298;2023-03-16T01:09:27;99265.09;;;20.08;100.00
42621;BME280;28252;53.336;-6.298;2023-03-16T01:10:01;99253.66;;;20.06;100.00
42621;BME280;28252;53.336;-6.298;2023-03-16T01:10:35;99250.97;;;20.06;100.00
42621;BME280;28252;53.336;-6.298;2023-03-16T01:11:14;99248.25;;;20.06;100.00
42621;BME280;28252;53.336;-6.298;2023-03-16T01:11:53;99253.66;;;20.06;100.00
42621;BME280;28252;53.336;-6.298;2023-03-16T01:12:27;99254.69;;;20.05;100.00
42621;BME280;28252;53.336;-6.298;2023-03-16T01:13:00;99245.56;;;20.06;100.00
42621;BME280;28252;53.336;-6.298;2023-03-16T01:13:38;99250.31;;;20.04;100.00
42621;BME280;28252;53.336;-6.298;2023-03-16T01:14:09;99248.47;;;20.04;100.00
42621;BME280;28252;53.336;-6.298;2023-03-16T01:14:41;99257.38;;;20.05;100.00
42621;BME280;28252;53.336;-6.298;2023-03-16T01:15:15;99246.59;;;20.05;100.00
42621;BME280;28252;53.336;-6.298;2023-03-16T01:15:53;99243.06;;;20.04;100.00
42621;BME280;28252;53.336;-6.298;2023-03-16T01:16:24;99249.28;;;20.05;100.00
42621;BME280;28252;53.336;-6.298;2023-03-16T01:17:03;99247.59;;;20.04;100.00
42621;BME280;28252;53.336;-6.298;2023-03-16T01:17:41;99241.38;;;20.03;100.00
42621;BME280;28252;53.336;-6.298;2023-03-16T01:18:16;99237.00;;;20.02;100.00
42621;BME280;28252;53.336;-6.298;2023-03-16T01:18:52;99242.63;;;20.01;100.00
42621;BME280;28252;53.336;-6.298;2023-03-16T01:19:29;99246.97;;;20.02;100.00
42621;BME280;28252;53.336;-6.298;2023-03-16T01:20:06;99240.56;;;20.03;100.00
42621;BME280;28252;53.336;-6.298;2023-03-16T01:20:42;99248.66;;;20.03;100.00
42621;BME280;28252;53.336;-6.298;2023-03-16T01:21:23;99245.34;;;20.01;100.00
42621;BME280;28252;53.336;-6.298;2023-03-16T01:21:54;99243.47;;;20.01;100.00
42621;BME280;28252;53.336;-6.298;2023-03-16T01:22:27;99239.06;;;20.00;100.00
42621;BME280;28252;53.336;-6.298;2023-03-16T01:23:01;99245.34;;;20.01;100.00
42621;BME280;28252;53.336;-6.298;2023-03-16T01:23:42;99246.34;;;20.00;100.00
42621;BME280;28252;53.336;-6.298;2023-03-16T01:24:33;99241.97;;;19.99;100.00
42621;BME280;28252;53.336;-6.298;2023-03-16T01:25:14;99241.97;;;19.99;100.00
42621;BME280;28252;53.336;-6.298;2023-03-16T01:25:48;99243.84;;;19.98;100.00
42621;BME280;28252;53.336;-6.298;2023-03-16T01:26:26;99241.97;;;19.99;100.00
42621;BME280;28252;53.336;-6.298;2023-03-16T01:26:59;99246.56;;;19.98;100.00
42621;BME280;28252;53.336;-6.298;2023-03-16T01:27:35;99230.53;;;19.96;100.00
42621;BME280;28252;53.336;-6.298;2023-03-16T01:28:13;99244.06;;;19.96;100.00
42621;BME280;28252;53.336;-6.298;2023-03-16T01:28:47;99245.75;;;19.98;100.00
42621;BME280;28252;53.336;-6.298;2023-03-16T01:29:24;99234.94;;;19.98;100.00
42621;BME280;28252;53.336;-6.298;2023-03-16T01:29:57;99244.88;;;19.97;100.00
42621;BME280;28252;53.336;-6.298;2023-03-16T01:30:30;99240.34;;;19.98;100.00
42621;BME280;28252;53.336;-6.298;2023-03-16T01:31:06;99239.72;;;19.95;100.00
42621;BME280;28252;53.336;-6.298;2023-03-16T01:31:39;99241.56;;;19.95;100.00
42621;BME280;28252;53.336;-6.298;2023-03-16T01:32:15;99239.72;;;19.95;100.00
42621;BME280;28252;53.336;-6.298;2023-03-16T01:32:54;99241.56;;;19.95;100.00
42621;BME280;28252;53.336;-6.298;2023-03-16T01:33:29;99239.91;;;19.94;100.00
42621;BME280;28252;53.336;-6.298;2023-03-16T01:34:02;99242.63;;;19.94;100.00
42621;BME280;28252;53.336;-6.298;2023-03-16T01:34:42;99239.06;;;19.93;100.00
42621;BME280;28252;53.336;-6.298;2023-03-16T01:35:16;99235.53;;;19.93;100.00
42621;BME280;28252;53.336;-6.298;2023-03-16T01:35:51;99234.72;;;19.92;100.00
42621;BME280;28252;53.336;-6.298;2023-03-16T01:36:28;99232.00;;;19.92;100.00
42621;BME280;28252;53.336;-6.298;2023-03-16T01:37:08;99234.72;;;19.92;100.00
42621;BME280;28252;53.336;-6.298;2023-03-16T01:37:57;99227.63;;;19.91;100.00
42621;BME280;28252;53.336;-6.298;2023-03-16T01:38:30;99234.91;;;19.91;100.00
42621;BME280;28252;53.336;-6.298;2023-03-16T01:39:01;99235.72;;;19.91;100.00
42621;BME280;28252;53.336;-6.298;2023-03-16T01:39:41;99230.31;;;19.91;100.00
42621;BME280;28252;53.336;-6.298;2023-03-16T01:40:13;99229.50;;;19.91;100.00
42621;BME280;28252;53.336;-6.298;2023-03-16T01:40:51;99228.69;;;19.90;100.00
42621;BME280;28252;53.336;-6.298;2023-03-16T01:41:23;99235.94;;;19.90;100.00
42621;BME280;28252;53.336;-6.298;2023-03-16T01:41:58;99231.38;;;19.90;100.00
42621;BME280;28252;53.336;-6.298;2023-03-16T01:42:29;99232.41;;;19.89;100.00
42621;BME280;28252;53.336;-6.298;2023-03-16T01:43:03;99231.59;;;19.89;100.00
42621;BME280;28252;53.336;-6.298;2023-03-16T01:43:37;99228.03;;;19.88;100.00
42621;BME280;28252;53.336;-6.298;2023-03-16T01:44:11;99225.31;;;19.88;100.00
42621;BME280;28252;53.336;-6.298;2023-03-16T01:46:21;99223.69;;;19.87;100.00
42621;BME280;28252;53.336;-6.298;2023-03-16T01:46:56;99220.97;;;19.87;100.00
42621;BME280;28252;53.336;-6.298;2023-03-16T01:47:32;99224.50;;;19.88;100.00
42621;BME280;28252;53.336;-6.298;2023-03-16T01:48:09;99221.19;;;19.86;100.00
42621;BME280;28252;53.336;-6.298;2023-03-16T01:48:47;99220.31;;;19.85;100.00
42621;BME280;28252;53.336;-6.298;2023-03-16T01:49:33;99209.53;;;19.85;100.00
42621;BME280;28252;53.336;-6.298;2023-03-16T01:50:06;99212.22;;;19.85;100.00
42621;BME280;28252;53.336;-6.298;2023-03-16T01:50:43;99218.69;;;19.84;100.00
42621;BME280;28252;53.336;-6.298;2023-03-16T01:51:57;99208.69;;;19.85;100.00
42621;BME280;28252;53.336;-6.298;2023-03-16T01:52:36;99208.69;;;19.85;100.00
42621;BME280;28252;53.336;-6.298;2023-03-16T01:53:08;99215.16;;;19.84;100.00
42621;BME280;28252;53.336;-6.298;2023-03-16T01:53:44;99206.19;;;19.83;100.00
42621;BME280;28252;53.336;-6.298;2023-03-16T01:54:24;99207.25;;;19.82;100.00
42621;BME280;28252;53.336;-6.298;2023-03-16T01:55:03;99207.25;;;19.82;100.00
42621;BME280;28252;53.336;-6.298;2023-03-16T01:55:38;99203.69;;;19.82;100.00
42621;BME280;28252;53.336;-6.298;2023-03-16T01:56:14;99202.88;;;19.81;100.00
42621;BME280;28252;53.336;-6.298;2023-03-16T01:57:33;99202.25;;;19.79;100.00
42621;BME280;28252;53.336;-6.298;2023-03-16T01:58:09;99206.81;;;19.78;100.00
42621;BME280;28252;53.336;-6.298;2023-03-16T01:58:41;99211.38;;;19.78;100.00
42621;BME280;28252;53.336;-6.298;2023-03-16T01:59:19;99210.34;;;19.79;100.00
42621;BME280;28252;53.336;-6.298;2023-03-16T02:00:05;99200.38;;;19.80;100.00
42621;BME280;28252;53.336;-6.298;2023-03-16T02:00:51;99198.72;;;19.78;100.00
42621;BME280;28252;53.336;-6.298;2023-03-16T02:01:25;99191.63;;;19.77;100.00
42621;BME280;28252;53.336;-6.298;2023-03-16T02:01:59;99191.63;;;19.77;100.00
42621;BME280;28252;53.336;-6.298;2023-03-16T02:02:37;99196.22;;;19.77;100.00
42621;BME280;28252;53.336;-6.298;2023-03-16T02:03:15;99183.75;;;19.76;100.00
42621;BME280;28252;53.336;-6.298;2023-03-16T02:03:56;99189.97;;;19.76;100.00
42621;BME280;28252;53.336;-6.298;2023-03-16T02:06:08;99189.97;;;19.76;100.00
42621;BME280;28252;53.336;-6.298;2023-03-16T02:06:47;99193.72;;;19.75;100.00
42621;BME280;28252;53.336;-6.298;2023-03-16T02:07:21;99195.56;;;19.75;100.00
42621;BME280;28252;53.336;-6.298;2023-03-16T02:07:56;99193.88;;;19.74;100.00
42621;BME280;28252;53.336;-6.298;2023-03-16T02:08:30;99200.97;;;19.75;100.00
42621;BME280;28252;53.336;-6.298;2023-03-16T02:09:02;99198.28;;;19.75;100.00
42621;BME280;28252;53.336;-6.298;2023-03-16T02:09:39;99192.88;;;19.75;100.00
42621;BME280;28252;53.336;-6.298;2023-03-16T02:10:16;99193.88;;;19.74;100.00
42621;BME280;28252;53.336;-6.298;2023-03-16T02:10:54;99189.50;;;19.73;100.00
42621;BME280;28252;53.336;-6.298;2023-03-16T02:11:31;99189.50;;;19.73;100.00
42621;BME280;28252;53.336;-6.298;2023-03-16T02:12:10;99198.66;;;19.72;100.00
42621;BME280;28252;53.336;-6.298;2023-03-16T02:12:51;99198.66;;;19.72;100.00
42621;BME280;28252;53.336;-6.298;2023-03-16T02:13:22;99197.00;;;19.71;100.00
42621;BME280;28252;53.336;-6.298;2023-03-16T02:13:57;99204.06;;;19.72;100.00
42621;BME280;28252;53.336;-6.298;2023-03-16T02:14:32;99197.00;;;19.71;100.00
42621;BME280;28252;53.336;-6.298;2023-03-16T02:15:06;99198.66;;;19.72;100.00
42621;BME280;28252;53.336;-6.298;2023-03-16T02:15:38;99202.41;;;19.71;100.00
42621;BME280;28252;53.336;-6.298;2023-03-16T02:16:14;99198.00;;;19.70;100.00
42621;BME280;28252;53.336;-6.298;2023-03-16T02:16:49;99195.31;;;19.70;100.00
42621;BME280;28252;53.336;-6.298;2023-03-16T02:17:29;99193.66;;;19.69;100.00
42621;BME280;28252;53.336;-6.298;2023-03-16T02:18:06;99199.06;;;19.69;100.00
42621;BME280;28252;53.336;-6.298;2023-03-16T02:18:40;99196.38;;;19.69;100.00
42621;BME280;28252;53.336;-6.298;2023-03-16T02:19:15;99193.66;;;19.69;100.00
42621;BME280;28252;53.336;-6.298;2023-03-16T02:20:49;99195.56;;;19.68;100.00
42621;BME280;28252;53.336;-6.298;2023-03-16T02:21:29;99194.69;;;19.68;100.00
42621;BME280;28252;53.336;-6.298;2023-03-16T02:22:08;99196.78;;;19.66;100.00
42621;BME280;28252;53.336;-6.298;2023-03-16T02:22:49;99188.66;;;19.66;100.00
42621;BME280;28252;53.336;-6.298;2023-03-16T02:23:26;99188.66;;;19.66;100.00
42621;BME280;28252;53.336;-6.298;2023-03-16T02:24:00;99183.25;;;19.66;100.00
42621;BME280;28252;53.336;-6.298;2023-03-16T02:24:33;99175.16;;;19.66;100.00
42621;BME280;28252;53.336;-6.298;2023-03-16T02:25:06;99176.19;;;19.65;100.00
42621;BME280;28252;53.336;-6.298;2023-03-16T02:25:46;99178.88;;;19.65;100.00
42621;BME280;28252;53.336;-6.298;2023-03-16T02:27:02;99174.53;;;19.64;100.00
42621;BME280;28252;53.336;-6.298;2023-03-16T02:30:11;99167.47;;;19.63;100.00
42621;BME280;28252;53.336;-6.298;2023-03-16T02:30:59;99169.53;;;19.60;100.00
42621;BME280;28252;53.336;-6.298;2023-03-16T02:31:36;99171.22;;;19.62;100.00
42621;BME280;28252;53.336;-6.298;2023-03-16T02:32:12;99173.91;;;19.62;100.00
42621;BME280;28252;53.336;-6.298;2023-03-16T02:32:48;99173.91;;;19.62;100.00
42621;BME280;28252;53.336;-6.298;2023-03-16T02:33:23;99167.88;;;19.59;100.00
42621;BME280;28252;53.336;-6.298;2023-03-16T02:33:59;99172.44;;;19.59;100.00
42621;BME280;28252;53.336;-6.298;2023-03-16T02:34:35;99182.41;;;19.58;100.00
42621;BME280;28252;53.336;-6.298;2023-03-16T02:35:11;99166.22;;;19.58;100.00
42621;BME280;28252;53.336;-6.298;2023-03-16T02:35:45;99177.03;;;19.58;100.00
42621;BME280;28252;53.336;-6.298;2023-03-16T02:36:19;99181.56;;;19.58;100.00
42621;BME280;28252;53.336;-6.298;2023-03-16T02:36:52;99164.53;;;19.57;100.00
42621;BME280;28252;53.336;-6.298;2023-03-16T02:37:28;99177.03;;;19.58;100.00
42621;BME280;28252;53.336;-6.298;2023-03-16T02:38:01;99171.00;;;19.56;100.00
42621;BME280;28252;53.336;-6.298;2023-03-16T02:38:36;99173.69;;;19.56;100.00
42621;BME280;28252;53.336;-6.298;2023-03-16T02:39:09;99162.91;;;19.56;100.00
42621;BME280;28252;53.336;-6.298;2023-03-16T02:39:48;99165.59;;;19.56;100.00
42621;BME280;28252;53.336;-6.298;2023-03-16T02:40:25;99165.59;;;19.56;100.00
42621;BME280;28252;53.336;-6.298;2023-03-16T02:41:00;99162.91;;;19.56;100.00
42621;BME280;28252;53.336;-6.298;2023-03-16T02:41:43;99161.22;;;19.55;100.00
42621;BME280;28252;53.336;-6.298;2023-03-16T02:42:18;99150.41;;;19.55;100.00
42621;BME280;28252;53.336;-6.298;2023-03-16T02:42:58;99150.41;;;19.55;100.00
42621;BME280;28252;53.336;-6.298;2023-03-16T02:43:33;99155.81;;;19.55;100.00
42621;BME280;28252;53.336;-6.298;2023-03-16T02:44:34;99158.50;;;19.55;100.00
42621;BME280;28252;53.336;-6.298;2023-03-16T02:45:09;99159.53;;;19.54;100.00
42621;BME280;28252;53.336;-6.298;2023-03-16T02:45:46;99143.34;;;19.54;100.00
42621;BME280;28252;53.336;-6.298;2023-03-16T02:46:24;99146.03;;;19.54;100.00
42621;BME280;28252;53.336;-6.298;2023-03-16T02:47:02;99152.50;;;19.53;100.00
42621;BME280;28252;53.336;-6.298;2023-03-16T02:47:40;99135.44;;;19.53;100.00
42621;BME280;28252;53.336;-6.298;2023-03-16T02:48:13;99134.63;;;19.52;100.00
42621;BME280;28252;53.336;-6.298;2023-03-16T02:49:00;99147.09;;;19.53;100.00
42621;BME280;28252;53.336;-6.298;2023-03-16T02:49:38;99156.22;;;19.52;100.00
42621;BME280;28252;53.336;-6.298;2023-03-16T02:50:15;99144.59;;;19.52;100.00
42621;BME280;28252;53.336;-6.298;2023-03-16T02:50:47;99149.16;;;19.51;100.00
42621;BME280;28252;53.336;-6.298;2023-03-16T02:51:20;99143.78;;;19.51;100.00
42621;BME280;28252;53.336;-6.298;2023-03-16T02:51:53;99135.88;;;19.50;100.00
42621;BME280;28252;53.336;-6.298;2023-03-16T02:52:28;99146.66;;;19.50;100.00
42621;BME280;28252;53.336;-6.298;2023-03-16T02:53:04;99142.09;;;19.50;100.00
42621;BME280;28252;53.336;-6.298;2023-03-16T02:53:37;99141.47;;;19.48;100.00
42621;BME280;28252;53.336;-6.298;2023-03-16T02:54:13;99145.81;;;19.49;100.00
42621;BME280;28252;53.336;-6.298;2023-03-16T02:54:45;99145.00;;;19.49;100.00
42621;BME280;28252;53.336;-6.298;2023-03-16T02:55:23;99145.00;;;19.49;100.00
42621;BME280;28252;53.336;-6.298;2023-03-16T02:55:56;99136.91;;;19.49;100.00
42621;BME280;28252;53.336;-6.298;2023-03-16T02:56:29;99146.88;;;19.48;100.00
42621;BME280;28252;53.336;-6.298;2023-03-16T02:57:02;99149.56;;;19.48;100.00
42621;BME280;28252;53.336;-6.298;2023-03-16T02:57:39;99149.56;;;19.48;100.00
42621;BME280;28252;53.336;-6.298;2023-03-16T02:58:16;99137.09;;;19.47;100.00
42621;BME280;28252;53.336;-6.298;2023-03-16T02:58:50;99144.38;;;19.47;100.00
42621;BME280;28252;53.336;-6.298;2023-03-16T02:59:26;99148.94;;;19.46;100.00
42621;BME280;28252;53.336;-6.298;2023-03-16T03:00:00;99154.34;;;19.46;100.00
42621;BME280;28252;53.336;-6.298;2023-03-16T03:05:26;99141.25;;;19.43;100.00
42621;BME280;28252;53.336;-6.298;2023-03-16T03:06:00;99133.97;;;19.44;100.00
42621;BME280;28252;53.336;-6.298;2023-03-16T03:06:38;99133.97;;;19.44;100.00
42621;BME280;28252;53.336;-6.298;2023-03-16T03:07:12;99132.28;;;19.42;100.00
42621;BME280;28252;53.336;-6.298;2023-03-16T03:08:08;99135.84;;;19.43;100.00
42621;BME280;28252;53.336;-6.298;2023-03-16T03:08:44;99135.00;;;19.42;100.00
42621;BME280;28252;53.336;-6.298;2023-03-16T03:09:17;99127.94;;;19.41;100.00
42621;BME280;28252;53.336;-6.298;2023-03-16T03:09:48;99132.53;;;19.41;100.00
42621;BME280;28252;53.336;-6.298;2023-03-16T03:10:25;99132.53;;;19.41;100.00
42621;BME280;28252;53.336;-6.298;2023-03-16T03:10:56;99130.84;;;19.40;100.00
42621;BME280;28252;53.336;-6.298;2023-03-16T03:11:32;99136.25;;;19.40;100.00
42621;BME280;28252;53.336;-6.298;2023-03-16T03:12:09;99128.97;;;19.40;100.00
42621;BME280;28252;53.336;-6.298;2023-03-16T03:12:43;99125.44;;;19.40;100.00
42621;BME280;28252;53.336;-6.298;2023-03-16T03:13:23;99118.38;;;19.39;100.00
42621;BME280;28252;53.336;-6.298;2023-03-16T03:13:57;99124.63;;;19.39;100.00
42621;BME280;28252;53.336;-6.298;2023-03-16T03:14:33;99125.44;;;19.40;100.00
42621;BME280;28252;53.336;-6.298;2023-03-16T03:15:10;99121.94;;;19.39;100.00
42621;BME280;28252;53.336;-6.298;2023-03-16T03:16:54;99122.13;;;19.38;100.00
42621;BME280;28252;53.336;-6.298;2023-03-16T03:17:30;99116.72;;;19.38;100.00
42621;BME280;28252;53.336;-6.298;2023-03-16T03:18:03;99111.31;;;19.38;100.00
42621;BME280;28252;53.336;-6.298;2023-03-16T03:18:42;99117.75;;;19.37;100.00
42621;BME280;28252;53.336;-6.298;2023-03-16T03:19:17;99112.34;;;19.37;100.00
42621;BME280;28252;53.336;-6.298;2023-03-16T03:19:50;99115.06;;;19.37;100.00
42621;BME280;28252;53.336;-6.298;2023-03-16T03:20:24;99120.44;;;19.37;100.00